sensor_id;sensor_type;location;lat;lon;timestamp;P1;durP1;ratioP1;P2;durP2;ratioP2
25213;SDS011;13160;51.834;4.706;2023-05-10T00:00:08;41.40;;;18.05;;
25213;SDS011;13160;51.834;4.706;2023-05-10T00:02:40;45.97;;;18.85;;
25213;SDS011;13160;51.834;4.706;2023-05-10T00:05:09;45.63;;;19.27;;
25213;SDS011;13160;51.834;4.706;2023-05-10T00:07:37;38.58;;;19.52;;
25213;SDS011;13160;51.834;4.706;2023-05-10T00:10:06;41.97;;;18.52;;
25213;SDS011;13160;51.834;4.706;2023-05-10T00:12:36;46.40;;;19.33;;
25213;SDS011;13160;51.834;4.706;2023-05-10T00:15:05;42.15;;;16.40;;
25213;SDS011;13160;51.834;4.706;2023-05-10T00:17:35;42.03;;;17.80;;
25213;SDS011;13160;51.834;4.706;2023-05-10T00:20:06;42.70;;;17.83;;
25213;SDS011;13160;51.834;4.706;2023-05-10T00:22:35;40.33;;;18.33;;
25213;SDS011;13160;51.834;4.706;2023-05-10T00:25:04;46.92;;;20.50;;
25213;SDS011;13160;51.834;4.706;2023-05-10T00:27:35;49.05;;;19.98;;
25213;SDS011;13160;51.834;4.706;2023-05-10T00:30:04;45.00;;;19.95;;
25213;SDS011;13160;51.834;4.706;2023-05-10T00:32:34;52.13;;;20.15;;
25213;SDS011;13160;51.834;4.706;2023-05-10T00:35:02;45.63;;;19.63;;
25213;SDS011;13160;51.834;4.706;2023-05-10T00:37:34;42.88;;;19.25;;
25213;SDS011;13160;51.834;4.706;2023-05-10T00:40:02;42.13;;;17.85;;
25213;SDS011;13160;51.834;4.706;2023-05-10T00:42:32;48.28;;;17.90;;
25213;SDS011;13160;51.834;4.706;2023-05-10T00:45:00;44.30;;;20.33;;
25213;SDS011;13160;51.834;4.706;2023-05-10T00:47:29;51.83;;;19.85;;
25213;SDS011;13160;51.834;4.706;2023-05-10T00:49:58;50.05;;;19.60;;
25213;SDS011;13160;51.834;4.706;2023-05-10T00:52:29;48.65;;;19.90;;
25213;SDS011;13160;51.834;4.706;2023-05-10T00:54:58;44.30;;;18.38;;
25213;SDS011;13160;51.834;4.706;2023-05-10T00:57:26;34.92;;;16.00;;
25213;SDS011;13160;51.834;4.706;2023-05-10T00:59:55;42.63;;;18.65;;
25213;SDS011;13160;51.834;4.706;2023-05-10T01:02:25;36.20;;;18.15;;
25213;SDS011;13160;51.834;4.706;2023-05-10T01:04:53;39.22;;;18.67;;
25213;SDS011;13160;51.834;4.706;2023-05-10T01:07:22;48.20;;;18.77;;
25213;SDS011;13160;51.834;4.706;2023-05-10T01:09:52;48.20;;;19.52;;
25213;SDS011;13160;51.834;4.706;2023-05-10T01:12:21;39.40;;;17.00;;
25213;SDS011;13160;51.834;4.706;2023-05-10T01:14:50;41.90;;;20.40;;
25213;SDS011;13160;51.834;4.706;2023-05-10T01:17:18;43.63;;;19.33;;
25213;SDS011;13160;51.834;4.706;2023-05-10T01:19:48;50.85;;;19.70;;
25213;SDS011;13160;51.834;4.706;2023-05-10T01:22:25;44.88;;;19.70;;
25213;SDS011;13160;51.834;4.706;2023-05-10T01:28:48;48.60;;;21.38;;
25213;SDS011;13160;51.834;4.706;2023-05-10T01:34:58;48.38;;;18.92;;
25213;SDS011;13160;51.834;4.706;2023-05-10T01:37:33;46.47;;;19.80;;
25213;SDS011;13160;51.834;4.706;2023-05-10T01:40:13;49.03;;;20.85;;
25213;SDS011;13160;51.834;4.706;2023-05-10T01:42:50;45.65;;;19.60;;
25213;SDS011;13160;51.834;4.706;2023-05-10T01:45:24;38.22;;;18.98;;
25213;SDS011;13160;51.834;4.706;2023-05-10T01:48:03;47.97;;;19.10;;
25213;SDS011;13160;51.834;4.706;2023-05-10T01:50:36;53.30;;;22.25;;
25213;SDS011;13160;51.834;4.706;2023-05-10T01:53:09;60.22;;;21.30;;
25213;SDS011;13160;51.834;4.706;2023-05-10T01:55:41;56.30;;;21.50;;
25213;SDS011;13160;51.834;4.706;2023-05-10T01:58:15;52.78;;;21.98;;
25213;SDS011;13160;51.834;4.706;2023-05-10T02:00:49;52.33;;;22.20;;
25213;SDS011;13160;51.834;4.706;2023-05-10T02:03:22;46.58;;;20.88;;
25213;SDS011;13160;51.834;4.706;2023-05-10T02:05:54;57.63;;;21.98;;
25213;SDS011;13160;51.834;4.706;2023-05-10T02:08:23;49.47;;;20.15;;
25213;SDS011;13160;51.834;4.706;2023-05-10T02:10:53;47.97;;;20.77;;
25213;SDS011;13160;51.834;4.706;2023-05-10T02:13:24;52.28;;;22.48;;
25213;SDS011;13160;51.834;4.706;2023-05-10T02:15:55;57.75;;;22.95;;
25213;SDS011;13160;51.834;4.706;2023-05-10T02:18:26;56.75;;;21.25;;
25213;SDS011;13160;51.834;4.706;2023-05-10T02:20:56;53.63;;;21.92;;
25213;SDS011;13160;51.834;4.706;2023-05-10T02:23:26;54.08;;;22.63;;
25213;SDS011;13160;51.834;4.706;2023-05-10T02:25:56;53.47;;;22.90;;
25213;SDS011;13160;51.834;4.706;2023-05-10T02:28:26;55.17;;;21.65;;
25213;SDS011;13160;51.834;4.706;2023-05-10T02:30:56;57.28;;;23.73;;
25213;SDS011;13160;51.834;4.706;2023-05-10T02:33:27;46.92;;;21.40;;
25213;SDS011;13160;51.834;4.706;2023-05-10T02:35:58;61.97;;;22.10;;
25213;SDS011;13160;51.834;4.706;2023-05-10T02:38:27;57.72;;;22.83;;
25213;SDS011;13160;51.834;4.706;2023-05-10T02:40:56;61.72;;;23.50;;
25213;SDS011;13160;51.834;4.706;2023-05-10T02:43:27;56.42;;;22.27;;
25213;SDS011;13160;51.834;4.706;2023-05-10T02:45:57;62.67;;;22.20;;
25213;SDS011;13160;51.834;4.706;2023-05-10T02:48:28;51.75;;;22.30;;
25213;SDS011;13160;51.834;4.706;2023-05-10T02:50:59;47.33;;;21.98;;
25213;SDS011;13160;51.834;4.706;2023-05-10T02:53:34;54.20;;;22.45;;
25213;SDS011;13160;51.834;4.706;2023-05-10T02:56:08;59.20;;;23.20;;
25213;SDS011;13160;51.834;4.706;2023-05-10T02:58:44;56.55;;;22.98;;
25213;SDS011;13160;51.834;4.706;2023-05-10T03:01:13;60.85;;;23.42;;
25213;SDS011;13160;51.834;4.706;2023-05-10T03:03:43;62.58;;;22.13;;
25213;SDS011;13160;51.834;4.706;2023-05-10T03:06:11;55.53;;;23.27;;
25213;SDS011;13160;51.834;4.706;2023-05-10T03:08:40;53.88;;;21.73;;
25213;SDS011;13160;51.834;4.706;2023-05-10T03:11:13;66.63;;;23.95;;
25213;SDS011;13160;51.834;4.706;2023-05-10T03:13:56;59.63;;;20.95;;
25213;SDS011;13160;51.834;4.706;2023-05-10T03:16:40;57.58;;;24.35;;
25213;SDS011;13160;51.834;4.706;2023-05-10T03:19:17;57.03;;;22.80;;
25213;SDS011;13160;51.834;4.706;2023-05-10T03:21:52;58.33;;;24.58;;
25213;SDS011;13160;51.834;4.706;2023-05-10T03:24:23;58.47;;;24.73;;
25213;SDS011;13160;51.834;4.706;2023-05-10T03:26:55;63.80;;;24.92;;
25213;SDS011;13160;51.834;4.706;2023-05-10T03:29:29;56.28;;;24.08;;
25213;SDS011;13160;51.834;4.706;2023-05-10T03:31:58;68.78;;;24.23;;
25213;SDS011;13160;51.834;4.706;2023-05-10T03:34:29;58.80;;;23.30;;
25213;SDS011;13160;51.834;4.706;2023-05-10T03:36:58;63.08;;;24.45;;
25213;SDS011;13160;51.834;4.706;2023-05-10T03:39:27;56.42;;;25.60;;
25213;SDS011;13160;51.834;4.706;2023-05-10T03:41:55;59.67;;;23.67;;
25213;SDS011;13160;51.834;4.706;2023-05-10T03:44:24;63.78;;;27.08;;
25213;SDS011;13160;51.834;4.706;2023-05-10T03:46:56;70.10;;;25.60;;
25213;SDS011;13160;51.834;4.706;2023-05-10T03:49:24;60.65;;;24.92;;
25213;SDS011;13160;51.834;4.706;2023-05-10T03:51:54;60.67;;;26.60;;
25213;SDS011;13160;51.834;4.706;2023-05-10T03:54:23;56.53;;;24.95;;
25213;SDS011;13160;51.834;4.706;2023-05-10T03:56:52;65.03;;;24.80;;
25213;SDS011;13160;51.834;4.706;2023-05-10T03:59:20;63.60;;;25.15;;
25213;SDS011;13160;51.834;4.706;2023-05-10T04:01:49;69.18;;;28.10;;
25213;SDS011;13160;51.834;4.706;2023-05-10T04:04:17;61.05;;;26.98;;
25213;SDS011;13160;51.834;4.706;2023-05-10T04:06:47;59.33;;;25.98;;
25213;SDS011;13160;51.834;4.706;2023-05-10T04:09:17;62.97;;;26.58;;
25213;SDS011;13160;51.834;4.706;2023-05-10T04:11:45;67.95;;;28.10;;
25213;SDS011;13160;51.834;4.706;2023-05-10T04:14:14;62.08;;;28.52;;
25213;SDS011;13160;51.834;4.706;2023-05-10T04:16:42;64.15;;;28.38;;
25213;SDS011;13160;51.834;4.706;2023-05-10T04:19:11;66.20;;;28.73;;
25213;SDS011;13160;51.834;4.706;2023-05-10T04:21:39;68.85;;;29.60;;
25213;SDS011;13160;51.834;4.706;2023-05-10T04:24:08;63.28;;;29.73;;
25213;SDS011;13160;51.834;4.706;2023-05-10T04:26:39;70.47;;;29.52;;
25213;SDS011;13160;51.834;4.706;2023-05-10T04:29:08;69.30;;;32.92;;
25213;SDS011;13160;51.834;4.706;2023-05-10T04:31:36;68.97;;;31.83;;
25213;SDS011;13160;51.834;4.706;2023-05-10T04:34:05;60.47;;;29.52;;
25213;SDS011;13160;51.834;4.706;2023-05-10T04:36:33;56.72;;;25.20;;
25213;SDS011;13160;51.834;4.706;2023-05-10T04:39:03;61.58;;;28.08;;
25213;SDS011;13160;51.834;4.706;2023-05-10T04:41:33;62.42;;;29.20;;
25213;SDS011;13160;51.834;4.706;2023-05-10T04:44:03;61.08;;;27.80;;
25213;SDS011;13160;51.834;4.706;2023-05-10T04:46:32;52.65;;;27.27;;
25213;SDS011;13160;51.834;4.706;2023-05-10T04:49:00;67.60;;;29.38;;
25213;SDS011;13160;51.834;4.706;2023-05-10T04:51:29;57.35;;;30.00;;
25213;SDS011;13160;51.834;4.706;2023-05-10T04:53:57;72.10;;;33.28;;
25213;SDS011;13160;51.834;4.706;2023-05-10T04:56:32;72.57;;;35.88;;
25213;SDS011;13160;51.834;4.706;2023-05-10T04:59:00;77.75;;;34.30;;
25213;SDS011;13160;51.834;4.706;2023-05-10T05:01:30;85.03;;;34.80;;
25213;SDS011;13160;51.834;4.706;2023-05-10T05:03:58;84.60;;;35.90;;
25213;SDS011;13160;51.834;4.706;2023-05-10T05:06:27;76.57;;;35.03;;
25213;SDS011;13160;51.834;4.706;2023-05-10T05:08:56;75.95;;;33.22;;
25213;SDS011;13160;51.834;4.706;2023-05-10T05:11:24;81.13;;;32.63;;
25213;SDS011;13160;51.834;4.706;2023-05-10T05:13:53;84.00;;;33.63;;
25213;SDS011;13160;51.834;4.706;2023-05-10T05:16:23;81.40;;;33.90;;
25213;SDS011;13160;51.834;4.706;2023-05-10T05:18:51;90.55;;;32.03;;
25213;SDS011;13160;51.834;4.706;2023-05-10T05:21:20;81.57;;;31.48;;
25213;SDS011;13160;51.834;4.706;2023-05-10T05:23:49;84.97;;;31.08;;
25213;SDS011;13160;51.834;4.706;2023-05-10T05:26:17;71.50;;;27.77;;
25213;SDS011;13160;51.834;4.706;2023-05-10T05:28:45;77.47;;;29.17;;
25213;SDS011;13160;51.834;4.706;2023-05-10T05:31:15;73.90;;;28.10;;
25213;SDS011;13160;51.834;4.706;2023-05-10T05:33:45;68.60;;;29.25;;
25213;SDS011;13160;51.834;4.706;2023-05-10T05:36:14;71.90;;;28.60;;
25213;SDS011;13160;51.834;4.706;2023-05-10T05:38:42;72.18;;;28.65;;
25213;SDS011;13160;51.834;4.706;2023-05-10T05:41:11;73.53;;;29.05;;
25213;SDS011;13160;51.834;4.706;2023-05-10T05:43:39;73.55;;;31.90;;
25213;SDS011;13160;51.834;4.706;2023-05-10T05:46:08;70.80;;;31.35;;
25213;SDS011;13160;51.834;4.706;2023-05-10T05:48:37;72.55;;;28.85;;
25213;SDS011;13160;51.834;4.706;2023-05-10T05:51:07;58.88;;;27.02;;
25213;SDS011;13160;51.834;4.706;2023-05-10T05:53:35;53.30;;;26.05;;
25213;SDS011;13160;51.834;4.706;2023-05-10T05:56:04;46.40;;;25.67;;
25213;SDS011;13160;51.834;4.706;2023-05-10T05:58:34;52.13;;;25.65;;
25213;SDS011;13160;51.834;4.706;2023-05-10T06:01:02;47.33;;;22.65;;
25213;SDS011;13160;51.834;4.706;2023-05-10T06:03:31;43.58;;;22.27;;
25213;SDS011;13160;51.834;4.706;2023-05-10T06:06:00;45.95;;;22.95;;
25213;SDS011;13160;51.834;4.706;2023-05-10T06:08:30;43.63;;;23.52;;
25213;SDS011;13160;51.834;4.706;2023-05-10T06:11:00;38.35;;;21.08;;
25213;SDS011;13160;51.834;4.706;2023-05-10T06:13:30;43.70;;;20.17;;
25213;SDS011;13160;51.834;4.706;2023-05-10T06:16:01;47.45;;;23.75;;
25213;SDS011;13160;51.834;4.706;2023-05-10T06:18:30;50.00;;;24.25;;
25213;SDS011;13160;51.834;4.706;2023-05-10T06:20:59;50.05;;;24.35;;
25213;SDS011;13160;51.834;4.706;2023-05-10T06:23:27;49.15;;;25.13;;
25213;SDS011;13160;51.834;4.706;2023-05-10T06:25:58;49.42;;;22.13;;
25213;SDS011;13160;51.834;4.706;2023-05-10T06:28:26;54.60;;;23.85;;
25213;SDS011;13160;51.834;4.706;2023-05-10T06:30:55;50.65;;;21.23;;
25213;SDS011;13160;51.834;4.706;2023-05-10T06:33:23;54.67;;;24.67;;
25213;SDS011;13160;51.834;4.706;2023-05-10T06:35:52;46.97;;;24.33;;
25213;SDS011;13160;51.834;4.706;2023-05-10T06:38:21;48.35;;;22.42;;
25213;SDS011;13160;51.834;4.706;2023-05-10T06:40:50;46.63;;;23.80;;
25213;SDS011;13160;51.834;4.706;2023-05-10T06:43:19;58.03;;;24.95;;
25213;SDS011;13160;51.834;4.706;2023-05-10T06:45:47;52.28;;;25.42;;
25213;SDS011;13160;51.834;4.706;2023-05-10T06:48:16;50.45;;;24.90;;
25213;SDS011;13160;51.834;4.706;2023-05-10T06:50:45;50.50;;;24.98;;
25213;SDS011;13160;51.834;4.706;2023-05-10T06:53:14;56.13;;;25.50;;
25213;SDS011;13160;51.834;4.706;2023-05-10T06:55:42;63.40;;;24.67;;
25213;SDS011;13160;51.834;4.706;2023-05-10T06:58:13;53.92;;;25.30;;
25213;SDS011;13160;51.834;4.706;2023-05-10T07:00:42;51.83;;;23.38;;
25213;SDS011;13160;51.834;4.706;2023-05-10T07:03:11;54.92;;;23.60;;
25213;SDS011;13160;51.834;4.706;2023-05-10T07:05:40;51.47;;;25.08;;
25213;SDS011;13160;51.834;4.706;2023-05-10T07:08:09;57.45;;;24.60;;
25213;SDS011;13160;51.834;4.706;2023-05-10T07:10:37;52.88;;;25.35;;
25213;SDS011;13160;51.834;4.706;2023-05-10T07:13:06;57.10;;;29.38;;
25213;SDS011;13160;51.834;4.706;2023-05-10T07:15:36;60.33;;;30.67;;
25213;SDS011;13160;51.834;4.706;2023-05-10T07:18:05;52.80;;;29.88;;
25213;SDS011;13160;51.834;4.706;2023-05-10T07:20:33;63.60;;;31.88;;
25213;SDS011;13160;51.834;4.706;2023-05-10T07:23:02;61.10;;;31.23;;
25213;SDS011;13160;51.834;4.706;2023-05-10T07:25:30;59.10;;;28.27;;
25213;SDS011;13160;51.834;4.706;2023-05-10T07:27:58;52.33;;;28.90;;
25213;SDS011;13160;51.834;4.706;2023-05-10T07:30:27;53.47;;;27.90;;
25213;SDS011;13160;51.834;4.706;2023-05-10T07:32:57;52.50;;;27.42;;
25213;SDS011;13160;51.834;4.706;2023-05-10T07:35:26;46.22;;;25.30;;
25213;SDS011;13160;51.834;4.706;2023-05-10T07:37:54;43.03;;;24.10;;
25213;SDS011;13160;51.834;4.706;2023-05-10T07:40:23;47.30;;;21.95;;
25213;SDS011;13160;51.834;4.706;2023-05-10T07:42:51;40.75;;;22.35;;
25213;SDS011;13160;51.834;4.706;2023-05-10T07:45:19;40.97;;;20.50;;
25213;SDS011;13160;51.834;4.706;2023-05-10T07:47:48;38.10;;;18.23;;
25213;SDS011;13160;51.834;4.706;2023-05-10T07:50:18;34.35;;;18.92;;
25213;SDS011;13160;51.834;4.706;2023-05-10T07:52:47;36.30;;;18.45;;
25213;SDS011;13160;51.834;4.706;2023-05-10T07:55:16;33.42;;;16.80;;
25213;SDS011;13160;51.834;4.706;2023-05-10T07:57:47;35.85;;;19.08;;
25213;SDS011;13160;51.834;4.706;2023-05-10T08:00:16;38.92;;;19.60;;
25213;SDS011;13160;51.834;4.706;2023-05-10T08:02:46;42.72;;;20.15;;
25213;SDS011;13160;51.834;4.706;2023-05-10T08:05:15;31.67;;;16.42;;
25213;SDS011;13160;51.834;4.706;2023-05-10T08:07:45;28.10;;;16.30;;
25213;SDS011;13160;51.834;4.706;2023-05-10T08:10:14;34.28;;;17.92;;
25213;SDS011;13160;51.834;4.706;2023-05-10T08:12:43;29.85;;;16.92;;
25213;SDS011;13160;51.834;4.706;2023-05-10T08:15:11;34.15;;;17.85;;
25213;SDS011;13160;51.834;4.706;2023-05-10T08:17:40;35.47;;;19.20;;
25213;SDS011;13160;51.834;4.706;2023-05-10T08:20:09;30.48;;;18.10;;
25213;SDS011;13160;51.834;4.706;2023-05-10T08:22:40;33.38;;;18.50;;
25213;SDS011;13160;51.834;4.706;2023-05-10T08:25:09;37.05;;;18.38;;
25213;SDS011;13160;51.834;4.706;2023-05-10T08:27:37;31.27;;;18.05;;
25213;SDS011;13160;51.834;4.706;2023-05-10T08:30:06;25.60;;;14.68;;
25213;SDS011;13160;51.834;4.706;2023-05-10T08:32:36;27.10;;;13.80;;
25213;SDS011;13160;51.834;4.706;2023-05-10T08:35:05;22.17;;;13.30;;
25213;SDS011;13160;51.834;4.706;2023-05-10T08:37:34;19.92;;;10.90;;
25213;SDS011;13160;51.834;4.706;2023-05-10T08:40:04;21.35;;;11.20;;
25213;SDS011;13160;51.834;4.706;2023-05-10T08:42:34;13.52;;;8.57;;
25213;SDS011;13160;51.834;4.706;2023-05-10T08:45:04;14.52;;;9.05;;
25213;SDS011;13160;51.834;4.706;2023-05-10T08:47:35;16.30;;;9.45;;
25213;SDS011;13160;51.834;4.706;2023-05-10T08:50:06;18.98;;;9.38;;
25213;SDS011;13160;51.834;4.706;2023-05-10T08:52:35;16.23;;;9.02;;
25213;SDS011;13160;51.834;4.706;2023-05-10T08:55:09;16.52;;;9.00;;
25213;SDS011;13160;51.834;4.706;2023-05-10T08:57:38;14.43;;;8.32;;
25213;SDS011;13160;51.834;4.706;2023-05-10T09:00:07;15.25;;;7.93;;
25213;SDS011;13160;51.834;4.706;2023-05-10T09:02:37;14.20;;;8.55;;
25213;SDS011;13160;51.834;4.706;2023-05-10T09:05:06;13.88;;;8.98;;
25213;SDS011;13160;51.834;4.706;2023-05-10T09:07:36;16.73;;;9.55;;
25213;SDS011;13160;51.834;4.706;2023-05-10T09:10:05;17.52;;;9.25;;
25213;SDS011;13160;51.834;4.706;2023-05-10T09:12:37;14.43;;;8.98;;
25213;SDS011;13160;51.834;4.706;2023-05-10T09:15:06;10.95;;;7.35;;
25213;SDS011;13160;51.834;4.706;2023-05-10T09:17:38;14.27;;;7.97;;
25213;SDS011;13160;51.834;4.706;2023-05-10T09:20:09;10.18;;;6.63;;
25213;SDS011;13160;51.834;4.706;2023-05-10T09:22:37;13.52;;;6.60;;
25213;SDS011;13160;51.834;4.706;2023-05-10T09:25:06;13.07;;;7.00;;
25213;SDS011;13160;51.834;4.706;2023-05-10T09:27:39;12.38;;;6.80;;
25213;SDS011;13160;51.834;4.706;2023-05-10T09:30:15;11.35;;;7.07;;
25213;SDS011;13160;51.834;4.706;2023-05-10T09:32:52;8.95;;;6.00;;
25213;SDS011;13160;51.834;4.706;2023-05-10T09:35:22;11.27;;;6.72;;
25213;SDS011;13160;51.834;4.706;2023-05-10T09:37:55;11.95;;;7.95;;
25213;SDS011;13160;51.834;4.706;2023-05-10T09:40:28;12.05;;;6.95;;
25213;SDS011;13160;51.834;4.706;2023-05-10T09:42:59;11.27;;;7.28;;
25213;SDS011;13160;51.834;4.706;2023-05-10T09:45:29;13.00;;;7.05;;
25213;SDS011;13160;51.834;4.706;2023-05-10T09:48:04;15.55;;;7.13;;
25213;SDS011;13160;51.834;4.706;2023-05-10T09:50:33;11.30;;;7.15;;
25213;SDS011;13160;51.834;4.706;2023-05-10T09:53:02;12.90;;;7.15;;
25213;SDS011;13160;51.834;4.706;2023-05-10T09:55:39;9.35;;;6.28;;
25213;SDS011;13160;51.834;4.706;2023-05-10T09:58:12;11.48;;;6.88;;
25213;SDS011;13160;51.834;4.706;2023-05-10T10:00:41;11.40;;;6.80;;
25213;SDS011;13160;51.834;4.706;2023-05-10T10:03:12;10.85;;;6.68;;
25213;SDS011;13160;51.834;4.706;2023-05-10T10:05:43;11.10;;;6.45;;
25213;SDS011;13160;51.834;4.706;2023-05-10T10:08:13;11.80;;;6.82;;
25213;SDS011;13160;51.834;4.706;2023-05-10T10:10:44;12.10;;;7.05;;
25213;SDS011;13160;51.834;4.706;2023-05-10T10:13:13;9.82;;;6.32;;
25213;SDS011;13160;51.834;4.706;2023-05-10T10:15:42;12.07;;;7.05;;
25213;SDS011;13160;51.834;4.706;2023-05-10T10:18:12;10.13;;;6.78;;
25213;SDS011;13160;51.834;4.706;2023-05-10T10:20:42;12.38;;;6.88;;
25213;SDS011;13160;51.834;4.706;2023-05-10T10:23:10;13.10;;;7.13;;
25213;SDS011;13160;51.834;4.706;2023-05-10T10:25:44;11.38;;;6.63;;
25213;SDS011;13160;51.834;4.706;2023-05-10T10:28:21;11.82;;;6.25;;
25213;SDS011;13160;51.834;4.706;2023-05-10T10:31:00;10.27;;;6.32;;
25213;SDS011;13160;51.834;4.706;2023-05-10T10:33:50;14.60;;;6.55;;
25213;SDS011;13160;51.834;4.706;2023-05-10T10:36:27;10.68;;;7.00;;
25213;SDS011;13160;51.834;4.706;2023-05-10T10:38:57;10.23;;;6.40;;
25213;SDS011;13160;51.834;4.706;2023-05-10T10:41:29;11.88;;;6.10;;
25213;SDS011;13160;51.834;4.706;2023-05-10T10:47:02;8.90;;;5.43;;
25213;SDS011;13160;51.834;4.706;2023-05-10T10:49:38;11.20;;;5.30;;
25213;SDS011;13160;51.834;4.706;2023-05-10T10:52:14;11.02;;;5.35;;
25213;SDS011;13160;51.834;4.706;2023-05-10T10:55:00;10.20;;;5.97;;
25213;SDS011;13160;51.834;4.706;2023-05-10T10:57:34;10.07;;;6.30;;
25213;SDS011;13160;51.834;4.706;2023-05-10T11:00:19;10.25;;;6.50;;
25213;SDS011;13160;51.834;4.706;2023-05-10T11:02:52;13.90;;;6.68;;
25213;SDS011;13160;51.834;4.706;2023-05-10T11:05:33;11.75;;;6.63;;
25213;SDS011;13160;51.834;4.706;2023-05-10T11:08:14;11.43;;;7.05;;
25213;SDS011;13160;51.834;4.706;2023-05-10T11:10:52;14.52;;;8.63;;
25213;SDS011;13160;51.834;4.706;2023-05-10T11:13:37;13.63;;;7.65;;
25213;SDS011;13160;51.834;4.706;2023-05-10T11:16:12;9.23;;;6.30;;
25213;SDS011;13160;51.834;4.706;2023-05-10T11:18:53;14.73;;;8.27;;
25213;SDS011;13160;51.834;4.706;2023-05-10T11:21:28;13.88;;;9.18;;
25213;SDS011;13160;51.834;4.706;2023-05-10T11:23:58;16.02;;;11.20;;
25213;SDS011;13160;51.834;4.706;2023-05-10T11:26:33;18.02;;;10.93;;
25213;SDS011;13160;51.834;4.706;2023-05-10T11:29:05;17.55;;;10.77;;
25213;SDS011;13160;51.834;4.706;2023-05-10T11:31:34;16.00;;;10.55;;
25213;SDS011;13160;51.834;4.706;2023-05-10T11:34:02;12.70;;;9.60;;
25213;SDS011;13160;51.834;4.706;2023-05-10T11:36:32;14.23;;;10.18;;
25213;SDS011;13160;51.834;4.706;2023-05-10T11:39:03;15.45;;;10.00;;
25213;SDS011;13160;51.834;4.706;2023-05-10T11:41:32;17.17;;;9.00;;
25213;SDS011;13160;51.834;4.706;2023-05-10T11:44:01;13.63;;;7.97;;
25213;SDS011;13160;51.834;4.706;2023-05-10T11:46:31;16.30;;;8.07;;
25213;SDS011;13160;51.834;4.706;2023-05-10T11:49:00;12.77;;;7.63;;
25213;SDS011;13160;51.834;4.706;2023-05-10T11:51:33;10.50;;;6.40;;
25213;SDS011;13160;51.834;4.706;2023-05-10T11:54:05;12.32;;;6.40;;
25213;SDS011;13160;51.834;4.706;2023-05-10T11:56:35;13.32;;;6.57;;
25213;SDS011;13160;51.834;4.706;2023-05-10T11:59:04;12.05;;;6.53;;
25213;SDS011;13160;51.834;4.706;2023-05-10T12:01:36;12.07;;;7.35;;
25213;SDS011;13160;51.834;4.706;2023-05-10T12:04:04;11.98;;;6.82;;
25213;SDS011;13160;51.834;4.706;2023-05-10T12:06:36;13.35;;;7.35;;
25213;SDS011;13160;51.834;4.706;2023-05-10T12:09:08;9.93;;;6.25;;
25213;SDS011;13160;51.834;4.706;2023-05-10T12:11:37;11.60;;;6.70;;
25213;SDS011;13160;51.834;4.706;2023-05-10T12:14:10;11.60;;;5.75;;
25213;SDS011;13160;51.834;4.706;2023-05-10T12:16:40;10.43;;;6.13;;
25213;SDS011;13160;51.834;4.706;2023-05-10T12:19:11;11.05;;;5.68;;
25213;SDS011;13160;51.834;4.706;2023-05-10T12:21:39;11.15;;;6.20;;
25213;SDS011;13160;51.834;4.706;2023-05-10T12:24:08;10.45;;;6.35;;
25213;SDS011;13160;51.834;4.706;2023-05-10T12:26:36;9.98;;;6.22;;
25213;SDS011;13160;51.834;4.706;2023-05-10T12:29:12;9.70;;;5.80;;
25213;SDS011;13160;51.834;4.706;2023-05-10T12:31:56;9.48;;;5.32;;
25213;SDS011;13160;51.834;4.706;2023-05-10T12:34:27;10.85;;;4.88;;
25213;SDS011;13160;51.834;4.706;2023-05-10T12:37:03;7.85;;;4.25;;
25213;SDS011;13160;51.834;4.706;2023-05-10T12:39:38;10.45;;;3.97;;
25213;SDS011;13160;51.834;4.706;2023-05-10T12:42:10;10.00;;;3.75;;
25213;SDS011;13160;51.834;4.706;2023-05-10T12:44:39;8.02;;;3.85;;
25213;SDS011;13160;51.834;4.706;2023-05-10T12:47:09;9.73;;;4.68;;
25213;SDS011;13160;51.834;4.706;2023-05-10T12:49:49;7.18;;;3.92;;
25213;SDS011;13160;51.834;4.706;2023-05-10T12:52:18;11.43;;;4.63;;
25213;SDS011;13160;51.834;4.706;2023-05-10T12:54:46;8.25;;;4.13;;
25213;SDS011;13160;51.834;4.706;2023-05-10T12:57:15;9.40;;;4.32;;
25213;SDS011;13160;51.834;4.706;2023-05-10T12:59:44;8.00;;;4.18;;
25213;SDS011;13160;51.834;4.706;2023-05-10T13:02:14;8.30;;;3.70;;
25213;SDS011;13160;51.834;4.706;2023-05-10T13:04:44;10.52;;;4.18;;
25213;SDS011;13160;51.834;4.706;2023-05-10T13:07:23;8.70;;;4.05;;
25213;SDS011;13160;51.834;4.706;2023-05-10T13:09:52;10.25;;;4.45;;
25213;SDS011;13160;51.834;4.706;2023-05-10T13:12:21;9.07;;;4.07;;
25213;SDS011;13160;51.834;4.706;2023-05-10T13:14:49;6.32;;;3.42;;
25213;SDS011;13160;51.834;4.706;2023-05-10T13:17:20;7.18;;;4.07;;
25213;SDS011;13160;51.834;4.706;2023-05-10T13:19:48;8.38;;;3.80;;
25213;SDS011;13160;51.834;4.706;2023-05-10T13:22:16;10.77;;;4.32;;
25213;SDS011;13160;51.834;4.706;2023-05-10T13:25:02;11.88;;;4.07;;
25213;SDS011;13160;51.834;4.706;2023-05-10T13:27:31;10.40;;;4.35;;
25213;SDS011;13160;51.834;4.706;2023-05-10T13:30:02;9.55;;;4.35;;
25213;SDS011;13160;51.834;4.706;2023-05-10T13:32:33;9.10;;;4.63;;
25213;SDS011;13160;51.834;4.706;2023-05-10T13:35:02;11.13;;;5.47;;
25213;SDS011;13160;51.834;4.706;2023-05-10T13:37:32;8.32;;;5.00;;
25213;SDS011;13160;51.834;4.706;2023-05-10T13:40:03;10.32;;;5.07;;
25213;SDS011;13160;51.834;4.706;2023-05-10T13:42:33;11.35;;;6.15;;
25213;SDS011;13160;51.834;4.706;2023-05-10T13:45:02;12.45;;;6.53;;
25213;SDS011;13160;51.834;4.706;2023-05-10T13:47:33;13.55;;;7.00;;
25213;SDS011;13160;51.834;4.706;2023-05-10T13:50:02;10.32;;;6.80;;
25213;SDS011;13160;51.834;4.706;2023-05-10T13:52:32;12.68;;;7.32;;
25213;SDS011;13160;51.834;4.706;2023-05-10T13:55:00;13.13;;;8.00;;
25213;SDS011;13160;51.834;4.706;2023-05-10T13:57:29;11.80;;;6.07;;
25213;SDS011;13160;51.834;4.706;2023-05-10T13:59:57;13.05;;;5.85;;
25213;SDS011;13160;51.834;4.706;2023-05-10T14:02:26;11.45;;;6.50;;
25213;SDS011;13160;51.834;4.706;2023-05-10T14:04:56;8.48;;;5.07;;
25213;SDS011;13160;51.834;4.706;2023-05-10T14:07:25;8.48;;;4.57;;
25213;SDS011;13160;51.834;4.706;2023-05-10T14:09:53;10.05;;;4.35;;
25213;SDS011;13160;51.834;4.706;2023-05-10T14:12:22;9.73;;;4.13;;
25213;SDS011;13160;51.834;4.706;2023-05-10T14:14:50;11.57;;;5.25;;
25213;SDS011;13160;51.834;4.706;2023-05-10T14:17:19;9.73;;;4.50;;
25213;SDS011;13160;51.834;4.706;2023-05-10T14:19:48;7.60;;;4.55;;
25213;SDS011;13160;51.834;4.706;2023-05-10T14:22:18;8.30;;;4.78;;
25213;SDS011;13160;51.834;4.706;2023-05-10T14:24:47;8.57;;;4.50;;
25213;SDS011;13160;51.834;4.706;2023-05-10T14:27:15;8.27;;;5.40;;
25213;SDS011;13160;51.834;4.706;2023-05-10T14:29:44;9.45;;;4.93;;
25213;SDS011;13160;51.834;4.706;2023-05-10T14:32:12;8.43;;;4.80;;
25213;SDS011;13160;51.834;4.706;2023-05-10T14:34:41;12.05;;;4.60;;
25213;SDS011;13160;51.834;4.706;2023-05-10T14:37:09;7.20;;;4.28;;
25213;SDS011;13160;51.834;4.706;2023-05-10T14:39:40;8.10;;;4.40;;
25213;SDS011;13160;51.834;4.706;2023-05-10T14:42:09;10.43;;;4.80;;
25213;SDS011;13160;51.834;4.706;2023-05-10T14:44:37;9.43;;;4.65;;
25213;SDS011;13160;51.834;4.706;2023-05-10T14:47:06;7.47;;;4.60;;
25213;SDS011;13160;51.834;4.706;2023-05-10T14:49:37;9.13;;;4.55;;
25213;SDS011;13160;51.834;4.706;2023-05-10T14:52:06;11.73;;;4.80;;
25213;SDS011;13160;51.834;4.706;2023-05-10T14:54:35;7.68;;;4.28;;
25213;SDS011;13160;51.834;4.706;2023-05-10T14:57:05;9.23;;;4.47;;